sensor_id;sensor_type;location;lat;lon;timestamp;temperature;humidity
34815;DHT22;21030;53.912;15.214;2022-10-31T00:01:29;35.50;28.40
34815;DHT22;21030;53.912;15.214;2022-10-31T00:03:56;35.70;28.10
34815;DHT22;21030;53.912;15.214;2022-10-31T00:06:26;35.90;27.70
34815;DHT22;21030;53.912;15.214;2022-10-31T00:08:58;35.70;27.80
34815;DHT22;21030;53.912;15.214;2022-10-31T00:11:26;35.90;27.80
34815;DHT22;21030;53.912;15.214;2022-10-31T00:13:53;35.90;27.70
34815;DHT22;21030;53.912;15.214;2022-10-31T00:16:22;36.00;27.70
34815;DHT22;21030;53.912;15.214;2022-10-31T00:19:00;35.80;27.90
34815;DHT22;21030;53.912;15.214;2022-10-31T00:21:29;35.50;28.30
34815;DHT22;21030;53.912;15.214;2022-10-31T00:23:57;35.50;28.30
34815;DHT22;21030;53.912;15.214;2022-10-31T00:26:30;35.30;28.60
34815;DHT22;21030;53.912;15.214;2022-10-31T00:28:58;35.50;28.30
34815;DHT22;21030;53.912;15.214;2022-10-31T00:31:27;35.60;28.20
34815;DHT22;21030;53.912;15.214;2022-10-31T00:33:57;35.90;27.90
34815;DHT22;21030;53.912;15.214;2022-10-31T00:36:24;35.80;27.80
34815;DHT22;21030;53.912;15.214;2022-10-31T00:38:51;35.60;28.00
34815;DHT22;21030;53.912;15.214;2022-10-31T00:41:18;35.40;28.00
34815;DHT22;21030;53.912;15.214;2022-10-31T00:43:45;35.00;28.40
34815;DHT22;21030;53.912;15.214;2022-10-31T00:46:13;35.30;28.20
34815;DHT22;21030;53.912;15.214;2022-10-31T00:48:40;35.70;27.80
34815;DHT22;21030;53.912;15.214;2022-10-31T00:51:08;35.70;27.50
34815;DHT22;21030;53.912;15.214;2022-10-31T00:53:35;35.70;27.60
34815;DHT22;21030;53.912;15.214;2022-10-31T00:56:02;35.60;27.70
34815;DHT22;21030;53.912;15.214;2022-10-31T00:58:30;35.60;27.80
34815;DHT22;21030;53.912;15.214;2022-10-31T01:00:56;35.70;27.70
34815;DHT22;21030;53.912;15.214;2022-10-31T01:03:29;35.90;27.40
34815;DHT22;21030;53.912;15.214;2022-10-31T01:06:08;36.10;27.00
34815;DHT22;21030;53.912;15.214;2022-10-31T01:08:36;36.20;26.90
34815;DHT22;21030;53.912;15.214;2022-10-31T01:11:07;36.10;27.00
34815;DHT22;21030;53.912;15.214;2022-10-31T01:13:35;35.90;27.20
34815;DHT22;21030;53.912;15.214;2022-10-31T01:16:04;35.70;27.60
34815;DHT22;21030;53.912;15.214;2022-10-31T01:18:31;35.30;27.70
34815;DHT22;21030;53.912;15.214;2022-10-31T01:21:04;35.30;27.80
34815;DHT22;21030;53.912;15.214;2022-10-31T01:23:32;35.60;27.70
34815;DHT22;21030;53.912;15.214;2022-10-31T01:26:01;35.80;27.20
34815;DHT22;21030;53.912;15.214;2022-10-31T01:28:28;35.90;27.10
34815;DHT22;21030;53.912;15.214;2022-10-31T01:30:55;35.70;26.80
34815;DHT22;21030;53.912;15.214;2022-10-31T01:33:26;35.90;26.90
34815;DHT22;21030;53.912;15.214;2022-10-31T01:35:53;35.90;26.70
34815;DHT22;21030;53.912;15.214;2022-10-31T01:38:20;35.90;26.70
34815;DHT22;21030;53.912;15.214;2022-10-31T01:40:47;35.90;26.70
34815;DHT22;21030;53.912;15.214;2022-10-31T01:43:14;35.90;26.70
34815;DHT22;21030;53.912;15.214;2022-10-31T01:45:46;35.80;26.60
34815;DHT22;21030;53.912;15.214;2022-10-31T01:48:16;35.40;27.00
34815;DHT22;21030;53.912;15.214;2022-10-31T01:50:46;35.20;27.30
34815;DHT22;21030;53.912;15.214;2022-10-31T01:53:15;35.20;27.30
34815;DHT22;21030;53.912;15.214;2022-10-31T01:55:45;35.20;27.20
34815;DHT22;21030;53.912;15.214;2022-10-31T01:58:21;34.90;27.40
34815;DHT22;21030;53.912;15.214;2022-10-31T02:00:53;34.80;27.60
34815;DHT22;21030;53.912;15.214;2022-10-31T02:03:22;35.00;27.50
34815;DHT22;21030;53.912;15.214;2022-10-31T02:05:50;35.10;27.30
34815;DHT22;21030;53.912;15.214;2022-10-31T02:08:30;35.30;27.30
34815;DHT22;21030;53.912;15.214;2022-10-31T02:10:58;35.20;27.40
34815;DHT22;21030;53.912;15.214;2022-10-31T02:13:28;35.10;27.50
34815;DHT22;21030;53.912;15.214;2022-10-31T02:15:58;35.00;27.50
34815;DHT22;21030;53.912;15.214;2022-10-31T02:18:28;35.10;27.30
34815;DHT22;21030;53.912;15.214;2022-10-31T02:21:52;34.90;27.30
34815;DHT22;21030;53.912;15.214;2022-10-31T02:24:44;34.80;27.50
34815;DHT22;21030;53.912;15.214;2022-10-31T02:30:25;35.10;27.20
34815;DHT22;21030;53.912;15.214;2022-10-31T02:33:20;35.40;27.00
34815;DHT22;21030;53.912;15.214;2022-10-31T02:38:29;35.90;26.40
34815;DHT22;21030;53.912;15.214;2022-10-31T02:41:04;35.80;26.40
34815;DHT22;21030;53.912;15.214;2022-10-31T02:43:44;36.00;26.30
34815;DHT22;21030;53.912;15.214;2022-10-31T02:52:28;36.10;26.00
34815;DHT22;21030;53.912;15.214;2022-10-31T02:54:56;35.90;26.30
34815;DHT22;21030;53.912;15.214;2022-10-31T02:57:29;35.90;26.30
34815;DHT22;21030;53.912;15.214;2022-10-31T03:00:03;35.90;26.20
34815;DHT22;21030;53.912;15.214;2022-10-31T03:02:46;35.30;26.50
34815;DHT22;21030;53.912;15.214;2022-10-31T03:08:00;35.30;26.80
34815;DHT22;21030;53.912;15.214;2022-10-31T03:13:48;35.70;26.40
34815;DHT22;21030;53.912;15.214;2022-10-31T03:16:29;35.90;26.20
34815;DHT22;21030;53.912;15.214;2022-10-31T03:19:09;35.90;26.30
34815;DHT22;21030;53.912;15.214;2022-10-31T03:24:06;35.20;26.60
34815;DHT22;21030;53.912;15.214;2022-10-31T03:26:38;34.40;27.30
34815;DHT22;21030;53.912;15.214;2022-10-31T03:29:07;34.30;27.90
34815;DHT22;21030;53.912;15.214;2022-10-31T03:34:39;33.30;28.70
34815;DHT22;21030;53.912;15.214;2022-10-31T03:37:09;33.30;29.10
34815;DHT22;21030;53.912;15.214;2022-10-31T03:39:39;33.50;28.70
34815;DHT22;21030;53.912;15.214;2022-10-31T03:42:11;33.70;28.50
34815;DHT22;21030;53.912;15.214;2022-10-31T03:44:42;34.20;28.10
34815;DHT22;21030;53.912;15.214;2022-10-31T03:47:11;34.60;27.80
34815;DHT22;21030;53.912;15.214;2022-10-31T03:49:38;34.70;27.70
34815;DHT22;21030;53.912;15.214;2022-10-31T03:54:46;35.10;27.20
34815;DHT22;21030;53.912;15.214;2022-10-31T03:57:35;35.30;26.80
34815;DHT22;21030;53.912;15.214;2022-10-31T04:00:08;35.10;27.00
34815;DHT22;21030;53.912;15.214;2022-10-31T04:02:40;35.30;27.00
34815;DHT22;21030;53.912;15.214;2022-10-31T04:05:10;35.40;27.00
34815;DHT22;21030;53.912;15.214;2022-10-31T04:07:41;35.50;26.70
34815;DHT22;21030;53.912;15.214;2022-10-31T04:10:14;35.50;26.50
34815;DHT22;21030;53.912;15.214;2022-10-31T04:12:49;35.40;26.50
34815;DHT22;21030;53.912;15.214;2022-10-31T04:15:19;35.20;26.70
34815;DHT22;21030;53.912;15.214;2022-10-31T04:17:49;34.90;26.90
34815;DHT22;21030;53.912;15.214;2022-10-31T04:20:17;34.80;27.10
34815;DHT22;21030;53.912;15.214;2022-10-31T04:22:45;35.00;27.00
34815;DHT22;21030;53.912;15.214;2022-10-31T04:25:11;35.00;27.10
34815;DHT22;21030;53.912;15.214;2022-10-31T04:27:38;34.80;27.30
34815;DHT22;21030;53.912;15.214;2022-10-31T04:30:06;34.30;27.70
34815;DHT22;21030;53.912;15.214;2022-10-31T04:32:33;34.60;27.60
34815;DHT22;21030;53.912;15.214;2022-10-31T04:35:00;34.90;27.20
34815;DHT22;21030;53.912;15.214;2022-10-31T04:37:30;34.80;27.30
34815;DHT22;21030;53.912;15.214;2022-10-31T04:39:56;34.60;27.30
34815;DHT22;21030;53.912;15.214;2022-10-31T04:42:23;34.60;27.30
34815;DHT22;21030;53.912;15.214;2022-10-31T04:44:50;34.70;27.40
34815;DHT22;21030;53.912;15.214;2022-10-31T04:47:17;34.30;27.50
34815;DHT22;21030;53.912;15.214;2022-10-31T04:49:44;34.10;27.80
34815;DHT22;21030;53.912;15.214;2022-10-31T04:52:11;34.30;27.90
34815;DHT22;21030;53.912;15.214;2022-10-31T04:54:38;34.20;27.80
34815;DHT22;21030;53.912;15.214;2022-10-31T04:57:05;34.30;27.70
34815;DHT22;21030;53.912;15.214;2022-10-31T04:59:32;33.90;27.80
34815;DHT22;21030;53.912;15.214;2022-10-31T05:01:59;33.50;28.10
34815;DHT22;21030;53.912;15.214;2022-10-31T05:04:26;32.90;28.70
34815;DHT22;21030;53.912;15.214;2022-10-31T05:06:53;32.50;28.90
34815;DHT22;21030;53.912;15.214;2022-10-31T05:09:20;32.50;29.20
34815;DHT22;21030;53.912;15.214;2022-10-31T05:11:47;32.70;29.00
34815;DHT22;21030;53.912;15.214;2022-10-31T05:14:17;33.30;28.90
34815;DHT22;21030;53.912;15.214;2022-10-31T05:16:44;33.70;28.30
34815;DHT22;21030;53.912;15.214;2022-10-31T05:19:11;34.00;28.00
34815;DHT22;21030;53.912;15.214;2022-10-31T05:21:38;33.90;27.90
34815;DHT22;21030;53.912;15.214;2022-10-31T05:24:05;34.00;27.90
34815;DHT22;21030;53.912;15.214;2022-10-31T05:26:32;34.20;27.60
34815;DHT22;21030;53.912;15.214;2022-10-31T05:28:59;34.30;27.50
34815;DHT22;21030;53.912;15.214;2022-10-31T05:31:26;34.20;27.70
34815;DHT22;21030;53.912;15.214;2022-10-31T05:33:53;33.90;27.80
34815;DHT22;21030;53.912;15.214;2022-10-31T05:36:20;33.80;27.90
34815;DHT22;21030;53.912;15.214;2022-10-31T05:38:47;33.90;27.90
34815;DHT22;21030;53.912;15.214;2022-10-31T05:41:14;34.00;27.60
34815;DHT22;21030;53.912;15.214;2022-10-31T05:43:41;34.50;27.40
34815;DHT22;21030;53.912;15.214;2022-10-31T05:46:08;34.90;27.20
34815;DHT22;21030;53.912;15.214;2022-10-31T05:48:35;35.20;26.70
34815;DHT22;21030;53.912;15.214;2022-10-31T05:51:02;35.40;26.60
34815;DHT22;21030;53.912;15.214;2022-10-31T05:53:29;35.80;26.20
34815;DHT22;21030;53.912;15.214;2022-10-31T05:55:56;36.00;26.00
34815;DHT22;21030;53.912;15.214;2022-10-31T05:58:23;36.20;26.00
34815;DHT22;21030;53.912;15.214;2022-10-31T06:00:50;35.90;26.00
34815;DHT22;21030;53.912;15.214;2022-10-31T06:03:17;35.70;26.20
34815;DHT22;21030;53.912;15.214;2022-10-31T06:05:44;35.30;27.00
34815;DHT22;21030;53.912;15.214;2022-10-31T06:08:18;35.30;26.70
34815;DHT22;21030;53.912;15.214;2022-10-31T06:10:44;35.40;26.50
34815;DHT22;21030;53.912;15.214;2022-10-31T06:13:12;35.20;26.70
34815;DHT22;21030;53.912;15.214;2022-10-31T06:15:38;34.80;27.00
34815;DHT22;21030;53.912;15.214;2022-10-31T06:18:05;34.10;27.40
34815;DHT22;21030;53.912;15.214;2022-10-31T06:20:33;33.80;28.00
34815;DHT22;21030;53.912;15.214;2022-10-31T06:23:00;33.60;28.20
34815;DHT22;21030;53.912;15.214;2022-10-31T06:25:29;33.90;28.20
34815;DHT22;21030;53.912;15.214;2022-10-31T06:27:55;34.30;27.70
34815;DHT22;21030;53.912;15.214;2022-10-31T06:30:23;34.30;27.70
34815;DHT22;21030;53.912;15.214;2022-10-31T06:32:51;34.20;27.70
34815;DHT22;21030;53.912;15.214;2022-10-31T06:35:18;34.10;27.80
34815;DHT22;21030;53.912;15.214;2022-10-31T06:37:55;34.00;28.00
34815;DHT22;21030;53.912;15.214;2022-10-31T06:40:22;34.40;27.70
34815;DHT22;21030;53.912;15.214;2022-10-31T06:43:02;34.80;27.50
34815;DHT22;21030;53.912;15.214;2022-10-31T06:45:31;35.30;27.00
34815;DHT22;21030;53.912;15.214;2022-10-31T06:47:58;35.40;26.80
34815;DHT22;21030;53.912;15.214;2022-10-31T06:50:45;35.00;26.90
34815;DHT22;21030;53.912;15.214;2022-10-31T06:53:13;34.60;27.20
34815;DHT22;21030;53.912;15.214;2022-10-31T06:55:41;34.50;27.30
34815;DHT22;21030;53.912;15.214;2022-10-31T06:58:10;34.80;27.50
34815;DHT22;21030;53.912;15.214;2022-10-31T07:00:37;34.60;27.40
34815;DHT22;21030;53.912;15.214;2022-10-31T07:03:07;33.80;27.90
34815;DHT22;21030;53.912;15.214;2022-10-31T07:05:35;33.50;28.10
34815;DHT22;21030;53.912;15.214;2022-10-31T07:08:06;33.90;28.60
34815;DHT22;21030;53.912;15.214;2022-10-31T07:10:35;34.20;28.00
34815;DHT22;21030;53.912;15.214;2022-10-31T07:13:13;34.10;27.80
34815;DHT22;21030;53.912;15.214;2022-10-31T07:15:41;34.70;27.90
34815;DHT22;21030;53.912;15.214;2022-10-31T07:18:10;35.00;27.50
34815;DHT22;21030;53.912;15.214;2022-10-31T07:20:38;34.70;27.30
34815;DHT22;21030;53.912;15.214;2022-10-31T07:23:05;35.20;27.60
34815;DHT22;21030;53.912;15.214;2022-10-31T07:25:32;35.60;27.30
34815;DHT22;21030;53.912;15.214;2022-10-31T07:27:59;35.80;26.50
34815;DHT22;21030;53.912;15.214;2022-10-31T07:30:27;35.60;27.00
34815;DHT22;21030;53.912;15.214;2022-10-31T07:32:55;35.40;27.30
34815;DHT22;21030;53.912;15.214;2022-10-31T07:35:27;34.90;27.10
34815;DHT22;21030;53.912;15.214;2022-10-31T07:37:54;34.70;27.40
34815;DHT22;21030;53.912;15.214;2022-10-31T07:40:23;34.80;27.70
34815;DHT22;21030;53.912;15.214;2022-10-31T07:42:52;34.70;27.70
34815;DHT22;21030;53.912;15.214;2022-10-31T07:45:20;34.60;27.60
34815;DHT22;21030;53.912;15.214;2022-10-31T07:47:52;34.90;27.80
34815;DHT22;21030;53.912;15.214;2022-10-31T07:50:21;34.70;27.60
34815;DHT22;21030;53.912;15.214;2022-10-31T07:52:57;34.70;27.70
34815;DHT22;21030;53.912;15.214;2022-10-31T07:55:24;35.50;27.50
34815;DHT22;21030;53.912;15.214;2022-10-31T07:58:11;35.90;27.40
34815;DHT22;21030;53.912;15.214;2022-10-31T08:00:40;36.00;26.90
34815;DHT22;21030;53.912;15.214;2022-10-31T08:03:13;36.10;27.00
34815;DHT22;21030;53.912;15.214;2022-10-31T08:05:40;35.40;27.30
34815;DHT22;21030;53.912;15.214;2022-10-31T08:08:08;35.60;27.50
34815;DHT22;21030;53.912;15.214;2022-10-31T08:10:38;36.10;27.30
34815;DHT22;21030;53.912;15.214;2022-10-31T08:13:07;36.40;27.00
34815;DHT22;21030;53.912;15.214;2022-10-31T08:15:35;36.40;27.10
34815;DHT22;21030;53.912;15.214;2022-10-31T08:18:14;36.10;26.90
34815;DHT22;21030;53.912;15.214;2022-10-31T08:20:42;35.90;27.40
34815;DHT22;21030;53.912;15.214;2022-10-31T08:23:11;36.20;27.30
34815;DHT22;21030;53.912;15.214;2022-10-31T08:25:39;36.40;27.20
34815;DHT22;21030;53.912;15.214;2022-10-31T08:28:07;36.40;27.20
34815;DHT22;21030;53.912;15.214;2022-10-31T08:30:36;36.60;27.30
34815;DHT22;21030;53.912;15.214;2022-10-31T08:33:06;37.00;27.30
34815;DHT22;21030;53.912;15.214;2022-10-31T08:35:33;37.30;26.90
34815;DHT22;21030;53.912;15.214;2022-10-31T08:38:00;37.00;26.90
34815;DHT22;21030;53.912;15.214;2022-10-31T08:40:29;37.30;27.00
34815;DHT22;21030;53.912;15.214;2022-10-31T08:43:02;37.40;26.90
34815;DHT22;21030;53.912;15.214;2022-10-31T08:45:31;37.60;27.00
34815;DHT22;21030;53.912;15.214;2022-10-31T08:48:00;37.90;26.70
34815;DHT22;21030;53.912;15.214;2022-10-31T08:50:30;38.10;26.90
34815;DHT22;21030;53.912;15.214;2022-10-31T08:53:11;37.90;26.40
34815;DHT22;21030;53.912;15.214;2022-10-31T08:55:39;37.90;26.70
34815;DHT22;21030;53.912;15.214;2022-10-31T08:58:09;38.00;26.80
34815;DHT22;21030;53.912;15.214;2022-10-31T09:00:36;38.10;27.00
34815;DHT22;21030;53.912;15.214;2022-10-31T09:03:24;38.20;26.50
34815;DHT22;21030;53.912;15.214;2022-10-31T09:05:55;38.30;26.60
34815;DHT22;21030;53.912;15.214;2022-10-31T09:08:22;38.50;26.40
34815;DHT22;21030;53.912;15.214;2022-10-31T09:10:49;38.70;26.50
34815;DHT22;21030;53.912;15.214;2022-10-31T09:13:18;38.80;26.50
34815;DHT22;21030;53.912;15.214;2022-10-31T09:15:47;38.90;26.20
34815;DHT22;21030;53.912;15.214;2022-10-31T09:18:16;39.10;26.40
34815;DHT22;21030;53.912;15.214;2022-10-31T09:20:44;39.30;26.10
34815;DHT22;21030;53.912;15.214;2022-10-31T09:23:14;39.30;26.20
34815;DHT22;21030;53.912;15.214;2022-10-31T09:25:42;39.30;26.20
34815;DHT22;21030;53.912;15.214;2022-10-31T09:28:21;39.30;26.20
34815;DHT22;21030;53.912;15.214;2022-10-31T09:30:52;38.70;26.20
34815;DHT22;21030;53.912;15.214;2022-10-31T09:33:19;38.40;26.50
34815;DHT22;21030;53.912;15.214;2022-10-31T09:35:48;38.30;26.80
34815;DHT22;21030;53.912;15.214;2022-10-31T09:38:20;38.70;26.80
34815;DHT22;21030;53.912;15.214;2022-10-31T09:43:50;38.90;26.40
34815;DHT22;21030;53.912;15.214;2022-10-31T09:51:40;38.60;27.00
34815;DHT22;21030;53.912;15.214;2022-10-31T09:55:02;38.60;26.90
34815;DHT22;21030;53.912;15.214;2022-10-31T09:57:13;38.50;27.00
34815;DHT22;21030;53.912;15.214;2022-10-31T09:59:43;38.10;27.20
34815;DHT22;21030;53.912;15.214;2022-10-31T10:02:20;38.30;27.40
34815;DHT22;21030;53.912;15.214;2022-10-31T10:07:27;37.50;27.90
34815;DHT22;21030;53.912;15.214;2022-10-31T10:09:58;37.10;28.10
34815;DHT22;21030;53.912;15.214;2022-10-31T10:12:47;36.60;28.50
34815;DHT22;21030;53.912;15.214;2022-10-31T10:18:42;37.50;28.60
34815;DHT22;21030;53.912;15.214;2022-10-31T10:21:32;37.20;28.40
34815;DHT22;21030;53.912;15.214;2022-10-31T10:24:28;37.00;28.60
34815;DHT22;21030;53.912;15.214;2022-10-31T10:30:20;37.20;28.70
34815;DHT22;21030;53.912;15.214;2022-10-31T10:32:54;36.80;28.80
34815;DHT22;21030;53.912;15.214;2022-10-31T10:38:02;37.00;28.90
34815;DHT22;21030;53.912;15.214;2022-10-31T10:40:30;37.10;29.00
34815;DHT22;21030;53.912;15.214;2022-10-31T10:43:34;37.20;28.90
34815;DHT22;21030;53.912;15.214;2022-10-31T10:46:20;37.40;28.70
34815;DHT22;21030;53.912;15.214;2022-10-31T10:49:37;37.50;28.70
34815;DHT22;21030;53.912;15.214;2022-10-31T10:52:18;37.40;28.90
34815;DHT22;21030;53.912;15.214;2022-10-31T10:55:26;37.40;29.00
34815;DHT22;21030;53.912;15.214;2022-10-31T10:58:03;37.50;28.90
34815;DHT22;21030;53.912;15.214;2022-10-31T11:03:00;37.70;28.70
34815;DHT22;21030;53.912;15.214;2022-10-31T11:05:40;38.10;28.70
34815;DHT22;21030;53.912;15.214;2022-10-31T11:08:09;37.90;28.60
34815;DHT22;21030;53.912;15.214;2022-10-31T11:10:36;37.20;29.00
34815;DHT22;21030;53.912;15.214;2022-10-31T11:18:29;37.30;29.20
34815;DHT22;21030;53.912;15.214;2022-10-31T11:20:59;37.50;29.10
34815;DHT22;21030;53.912;15.214;2022-10-31T11:23:28;37.60;29.00
34815;DHT22;21030;53.912;15.214;2022-10-31T11:26:06;37.90;29.00
34815;DHT22;21030;53.912;15.214;2022-10-31T11:28:56;37.90;28.70
34815;DHT22;21030;53.912;15.214;2022-10-31T11:31:24;38.10;28.70
34815;DHT22;21030;53.912;15.214;2022-10-31T11:33:58;37.70;28.90
34815;DHT22;21030;53.912;15.214;2022-10-31T11:36:31;37.50;29.50
34815;DHT22;21030;53.912;15.214;2022-10-31T11:39:00;37.50;29.10
34815;DHT22;21030;53.912;15.214;2022-10-31T11:41:33;37.30;29.10
34815;DHT22;21030;53.912;15.214;2022-10-31T11:44:05;37.70;29.10
34815;DHT22;21030;53.912;15.214;2022-10-31T11:46:41;37.80;28.80
34815;DHT22;21030;53.912;15.214;2022-10-31T11:49:27;37.80;28.90
34815;DHT22;21030;53.912;15.214;2022-10-31T11:51:57;37.70;28.90
34815;DHT22;21030;53.912;15.214;2022-10-31T11:54:28;37.20;29.10
34815;DHT22;21030;53.912;15.214;2022-10-31T11:56:56;37.20;29.30
34815;DHT22;21030;53.912;15.214;2022-10-31T11:59:29;37.30;29.30
34815;DHT22;21030;53.912;15.214;2022-10-31T12:01:59;37.20;29.40
34815;DHT22;21030;53.912;15.214;2022-10-31T12:04:47;37.20;29.50
34815;DHT22;21030;53.912;15.214;2022-10-31T12:07:15;37.50;29.20
34815;DHT22;21030;53.912;15.214;2022-10-31T12:09:42;37.20;29.10
34815;DHT22;21030;53.912;15.214;2022-10-31T12:18:05;37.60;29.20
34815;DHT22;21030;53.912;15.214;2022-10-31T12:23:32;36.70;29.90
34815;DHT22;21030;53.912;15.214;2022-10-31T12:37:08;37.40;29.60
34815;DHT22;21030;53.912;15.214;2022-10-31T12:42:35;37.80;29.10
34815;DHT22;21030;53.912;15.214;2022-10-31T12:48:30;38.00;28.90
34815;DHT22;21030;53.912;15.214;2022-10-31T12:50:49;38.20;28.80
34815;DHT22;21030;53.912;15.214;2022-10-31T12:59:15;38.40;28.70
34815;DHT22;21030;53.912;15.214;2022-10-31T13:04:39;38.00;28.90
34815;DHT22;21030;53.912;15.214;2022-10-31T13:07:14;38.30;28.80
34815;DHT22;21030;53.912;15.214;2022-10-31T13:09:53;38.30;28.80
34815;DHT22;21030;53.912;15.214;2022-10-31T13:12:22;38.40;28.70
34815;DHT22;21030;53.912;15.214;2022-10-31T13:14:56;38.30;28.70
34815;DHT22;21030;53.912;15.214;2022-10-31T13:17:36;38.30;28.70
34815;DHT22;21030;53.912;15.214;2022-10-31T13:20:33;38.50;28.80
34815;DHT22;21030;53.912;15.214;2022-10-31T13:26:01;37.90;29.00
34815;DHT22;21030;53.912;15.214;2022-10-31T13:31:12;38.60;28.70
34815;DHT22;21030;53.912;15.214;2022-10-31T13:33:54;39.00;28.40
34815;DHT22;21030;53.912;15.214;2022-10-31T13:36:45;39.20;28.20
34815;DHT22;21030;53.912;15.214;2022-10-31T13:45:20;38.60;28.70
34815;DHT22;21030;53.912;15.214;2022-10-31T13:47:57;38.60;28.80
34815;DHT22;21030;53.912;15.214;2022-10-31T13:50:31;38.80;28.60
34815;DHT22;21030;53.912;15.214;2022-10-31T13:53:20;38.90;28.40
34815;DHT22;21030;53.912;15.214;2022-10-31T13:58:35;38.80;28.30
34815;DHT22;21030;53.912;15.214;2022-10-31T14:01:17;38.70;28.50
34815;DHT22;21030;53.912;15.214;2022-10-31T14:03:55;38.90;28.50
34815;DHT22;21030;53.912;15.214;2022-10-31T14:06:50;39.10;28.30
34815;DHT22;21030;53.912;15.214;2022-10-31T14:11:55;39.20;28.20
34815;DHT22;21030;53.912;15.214;2022-10-31T14:14:29;39.20;28.30
34815;DHT22;21030;53.912;15.214;2022-10-31T14:16:58;39.30;28.10
34815;DHT22;21030;53.912;15.214;2022-10-31T14:19:26;39.40;28.00
34815;DHT22;21030;53.912;15.214;2022-10-31T14:21:53;39.40;28.00
34815;DHT22;21030;53.912;15.214;2022-10-31T14:26:58;39.30;28.00
34815;DHT22;21030;53.912;15.214;2022-10-31T14:29:33;39.30;28.00
34815;DHT22;21030;53.912;15.214;2022-10-31T14:32:14;39.40;27.90
34815;DHT22;21030;53.912;15.214;2022-10-31T14:34:54;39.40;27.90
34815;DHT22;21030;53.912;15.214;2022-10-31T14:49:10;39.30;27.80
34815;DHT22;21030;53.912;15.214;2022-10-31T14:51:42;39.20;27.90
34815;DHT22;21030;53.912;15.214;2022-10-31T14:54:15;38.90;28.20
34815;DHT22;21030;53.912;15.214;2022-10-31T14:56:52;38.70;28.30
34815;DHT22;21030;53.912;15.214;2022-10-31T14:59:23;38.50;28.90
34815;DHT22;21030;53.912;15.214;2022-10-31T15:01:57;38.60;28.30
34815;DHT22;21030;53.912;15.214;2022-10-31T15:04:27;38.60;28.30
34815;DHT22;21030;53.912;15.214;2022-10-31T15:09:35;38.80;28.10
34815;DHT22;21030;53.912;15.214;2022-10-31T15:12:28;38.60;28.10
34815;DHT22;21030;53.912;15.214;2022-10-31T15:14:57;38.70;28.10
34815;DHT22;21030;53.912;15.214;2022-10-31T15:17:26;38.60;28.20
34815;DHT22;21030;53.912;15.214;2022-10-31T15:19:53;38.70;28.20
34815;DHT22;21030;53.912;15.214;2022-10-31T15:22:23;38.80;28.10
34815;DHT22;21030;53.912;15.214;2022-10-31T15:24:52;38.80;28.10
34815;DHT22;21030;53.912;15.214;2022-10-31T15:27:24;38.80;28.00
34815;DHT22;21030;53.912;15.214;2022-10-31T15:29:55;38.60;28.00
34815;DHT22;21030;53.912;15.214;2022-10-31T15:32:25;38.40;28.10
34815;DHT22;21030;53.912;15.214;2022-10-31T15:34:54;38.40;28.10
34815;DHT22;21030;53.912;15.214;2022-10-31T15:37:24;38.50;28.10
34815;DHT22;21030;53.912;15.214;2022-10-31T15:39:51;38.50;28.10
34815;DHT22;21030;53.912;15.214;2022-10-31T15:42:34;38.50;28.10
34815;DHT22;21030;53.912;15.214;2022-10-31T15:45:17;38.40;28.20
34815;DHT22;21030;53.912;15.214;2022-10-31T15:48:32;38.40;28.20
34815;DHT22;21030;53.912;15.214;2022-10-31T15:50:39;38.30;28.10
34815;DHT22;21030;53.912;15.214;2022-10-31T15:56:04;38.30;28.70
34815;DHT22;21030;53.912;15.214;2022-10-31T15:58:33;38.40;28.10
34815;DHT22;21030;53.912;15.214;2022-10-31T16:01:20;38.50;27.90
34815;DHT22;21030;53.912;15.214;2022-10-31T16:04:19;38.40;27.80
34815;DHT22;21030;53.912;15.214;2022-10-31T16:07:17;38.40;27.80
34815;DHT22;21030;53.912;15.214;2022-10-31T16:10:00;38.50;27.70
34815;DHT22;21030;53.912;15.214;2022-10-31T16:12:42;38.50;27.60
34815;DHT22;21030;53.912;15.214;2022-10-31T16:15:15;38.60;27.70
34815;DHT22;21030;53.912;15.214;2022-10-31T16:17:45;38.60;27.60
34815;DHT22;21030;53.912;15.214;2022-10-31T16:22:53;38.60;27.70
34815;DHT22;21030;53.912;15.214;2022-10-31T16:25:24;38.50;27.60
34815;DHT22;21030;53.912;15.214;2022-10-31T16:27:54;38.60;27.60
34815;DHT22;21030;53.912;15.214;2022-10-31T16:30:39;38.60;27.60
34815;DHT22;21030;53.912;15.214;2022-10-31T16:35:54;38.40;27.70
34815;DHT22;21030;53.912;15.214;2022-10-31T16:38:41;38.40;27.60
34815;DHT22;21030;53.912;15.214;2022-10-31T16:41:08;38.40;27.50
34815;DHT22;21030;53.912;15.214;2022-10-31T16:43:35;38.50;27.50
34815;DHT22;21030;53.912;15.214;2022-10-31T16:46:03;38.60;27.50
34815;DHT22;21030;53.912;15.214;2022-10-31T16:48:31;38.50;27.50
34815;DHT22;21030;53.912;15.214;2022-10-31T16:50:58;38.50;27.50
34815;DHT22;21030;53.912;15.214;2022-10-31T16:53:25;38.60;27.50
34815;DHT22;21030;53.912;15.214;2022-10-31T16:55:57;38.60;27.40
34815;DHT22;21030;53.912;15.214;2022-10-31T16:58:28;38.50;27.30
34815;DHT22;21030;53.912;15.214;2022-10-31T17:00:56;38.60;27.30
34815;DHT22;21030;53.912;15.214;2022-10-31T17:03:24;38.30;27.30
34815;DHT22;21030;53.912;15.214;2022-10-31T17:05:59;38.50;27.30
34815;DHT22;21030;53.912;15.214;2022-10-31T17:08:27;38.60;27.30
34815;DHT22;21030;53.912;15.214;2022-10-31T17:10:56;38.70;27.10
34815;DHT22;21030;53.912;15.214;2022-10-31T17:13:26;38.80;27.10
34815;DHT22;21030;53.912;15.214;2022-10-31T17:15:56;38.70;27.10
34815;DHT22;21030;53.912;15.214;2022-10-31T17:18:24;38.60;27.10
34815;DHT22;21030;53.912;15.214;2022-10-31T17:20:58;38.60;27.20
34815;DHT22;21030;53.912;15.214;2022-10-31T17:23:26;38.50;27.20
34815;DHT22;21030;53.912;15.214;2022-10-31T17:25:55;38.50;27.20
34815;DHT22;21030;53.912;15.214;2022-10-31T17:28:22;38.50;27.20
34815;DHT22;21030;53.912;15.214;2022-10-31T17:30:49;38.40;27.10
34815;DHT22;21030;53.912;15.214;2022-10-31T17:33:16;38.50;27.20
34815;DHT22;21030;53.912;15.214;2022-10-31T17:35:43;38.50;27.20
34815;DHT22;21030;53.912;15.214;2022-10-31T17:38:11;38.40;27.10
34815;DHT22;21030;53.912;15.214;2022-10-31T17:40:39;38.40;27.10
34815;DHT22;21030;53.912;15.214;2022-10-31T17:43:09;38.40;27.10
34815;DHT22;21030;53.912;15.214;2022-10-31T17:45:38;38.30;27.10
34815;DHT22;21030;53.912;15.214;2022-10-31T17:48:07;38.30;27.10
34815;DHT22;21030;53.912;15.214;2022-10-31T17:50:35;38.40;27.10
34815;DHT22;21030;53.912;15.214;2022-10-31T17:53:02;38.40;27.00
34815;DHT22;21030;53.912;15.214;2022-10-31T17:55:32;38.30;27.10